createdAt,value
2022-09-25T00:03:32.179Z,8.00
2022-09-25T00:08:35.821Z,7.07
2022-09-25T00:13:40.861Z,7.40
2022-09-25T00:19:02.488Z,8.77
2022-09-25T00:24:10.455Z,7.93
2022-09-25T00:29:18.662Z,8.70
2022-09-25T00:34:21.313Z,8.55
2022-09-25T00:39:24.530Z,8.88
2022-09-25T00:44:58.735Z,9.27
2022-09-25T00:50:03.129Z,10.60
2022-09-25T00:55:08.273Z,8.88
2022-09-25T01:00:12.863Z,9.35
2022-09-25T01:05:18.849Z,9.82
2022-09-25T01:10:22.131Z,8.60
2022-09-25T01:15:37.343Z,9.03
2022-09-25T01:21:17.588Z,8.95
2022-09-25T01:26:34.870Z,8.73
2022-09-25T01:31:48.409Z,8.02
2022-09-25T01:37:10.705Z,9.02
2022-09-25T01:42:22.541Z,8.53
2022-09-25T01:47:28.727Z,8.82
2022-09-25T01:52:45.026Z,9.45
2022-09-25T01:57:59.135Z,8.65
2022-09-25T02:03:11.731Z,9.52
2022-09-25T02:08:22.421Z,9.63
2022-09-25T02:13:28.501Z,10.20
2022-09-25T02:18:49.743Z,8.55
2022-09-25T02:24:40.734Z,8.70
2022-09-25T02:29:43.341Z,8.10
2022-09-25T02:34:46.472Z,8.57
2022-09-25T02:39:54.801Z,8.75
2022-09-25T02:45:03.394Z,8.20
2022-09-25T02:50:50.689Z,8.75
2022-09-25T02:56:14.602Z,8.57
2022-09-25T03:01:20.615Z,8.63
2022-09-25T03:06:24.301Z,8.13
2022-09-25T03:11:27.851Z,8.65
2022-09-25T03:16:49.198Z,8.05
2022-09-25T03:21:51.863Z,8.07
2022-09-25T03:26:54.781Z,8.50
2022-09-25T03:31:57.475Z,8.20
2022-09-25T03:37:00.156Z,8.57
2022-09-25T03:42:02.832Z,8.07
2022-09-25T03:47:05.431Z,8.10
2022-09-25T03:52:08.514Z,8.03
2022-09-25T03:57:13.016Z,7.45
2022-09-25T04:02:15.709Z,7.60
2022-09-25T04:07:18.431Z,7.20
2022-09-25T04:12:22.761Z,7.63
2022-09-25T04:17:25.464Z,7.90
2022-09-25T04:22:28.078Z,7.38
2022-09-25T04:27:30.825Z,7.03
2022-09-25T04:32:52.559Z,7.40
2022-09-25T04:37:55.295Z,8.57
2022-09-25T04:43:03.171Z,7.43
2022-09-25T04:48:06.145Z,8.68
2022-09-25T04:53:09.171Z,8.13
2022-09-25T04:58:12.049Z,8.20
2022-09-25T05:03:15.767Z,8.63
2022-09-25T05:08:18.684Z,7.97
2022-09-25T05:13:21.599Z,8.00
2022-09-25T05:18:24.768Z,10.98
2022-09-25T05:23:27.332Z,13.43
2022-09-25T05:28:31.741Z,24.50
2022-09-25T05:33:35.621Z,36.70
2022-09-25T05:38:40.006Z,37.03
2022-09-25T05:43:45.130Z,21.77
2022-09-25T05:48:48.002Z,25.95
2022-09-25T05:53:50.567Z,25.95
2022-09-25T05:58:54.375Z,26.93
2022-09-25T06:03:57.016Z,22.92
2022-09-25T06:08:59.866Z,22.15
2022-09-25T06:14:04.206Z,17.10
2022-09-25T06:19:07.013Z,15.68
2022-09-25T06:24:11.009Z,15.10
2022-09-25T06:29:13.717Z,15.00
2022-09-25T06:34:16.487Z,15.90
2022-09-25T06:39:19.163Z,15.32
2022-09-25T06:44:23.150Z,14.52
2022-09-25T06:49:26.012Z,13.53
2022-09-25T06:54:31.290Z,10.95
2022-09-25T06:59:33.974Z,10.65
2022-09-25T07:04:37.201Z,9.77
2022-09-25T07:09:39.876Z,10.60
2022-09-25T07:14:44.706Z,9.13
2022-09-25T07:19:47.342Z,9.70
2022-09-25T07:24:50.032Z,12.30
2022-09-25T07:29:52.989Z,10.60
2022-09-25T07:34:55.777Z,9.23
2022-09-25T07:39:58.433Z,9.77
2022-09-25T07:45:01.176Z,10.30
2022-09-25T07:50:04.966Z,10.05
2022-09-25T07:55:08.743Z,9.32
2022-09-25T08:00:12.284Z,9.52
2022-09-25T08:05:15.522Z,9.50
2022-09-25T08:10:19.323Z,8.52
2022-09-25T08:15:22.309Z,7.72
2022-09-25T08:20:24.953Z,9.63
2022-09-25T08:25:27.725Z,7.50
2022-09-25T08:30:30.640Z,9.10
2022-09-25T08:35:33.412Z,8.73
2022-09-25T08:40:57.499Z,7.97
2022-09-25T08:46:20.148Z,9.00
2022-09-25T08:51:23.083Z,8.43
2022-09-25T08:56:28.942Z,8.40
2022-09-25T09:01:52.469Z,7.53
2022-09-25T09:07:25.844Z,7.13
2022-09-25T09:12:39.590Z,7.57
2022-09-25T09:17:43.424Z,7.25
2022-09-25T09:22:51.204Z,7.70
2022-09-25T09:28:13.105Z,7.03
2022-09-25T09:33:34.523Z,7.05
2022-09-25T09:39:32.344Z,7.85
2022-09-25T09:44:57.932Z,5.90
2022-09-25T09:50:19.337Z,6.80
2022-09-25T09:55:31.195Z,5.90
2022-09-25T10:00:35.420Z,6.05
2022-09-25T10:05:45.826Z,5.88
2022-09-25T10:10:54.171Z,6.63
2022-09-25T10:16:11.624Z,5.93
2022-09-25T10:21:22.704Z,6.22
2022-09-25T10:26:30.413Z,6.18
2022-09-25T10:31:38.880Z,6.30
2022-09-25T10:36:47.165Z,6.38
2022-09-25T10:41:50.204Z,6.17
2022-09-25T10:47:15.734Z,5.55
2022-09-25T10:52:22.451Z,6.07
2022-09-25T10:57:38.537Z,5.80
2022-09-25T11:02:46.797Z,6.55
2022-09-25T11:07:59.342Z,6.00
2022-09-25T11:13:21.808Z,5.38
2022-09-25T11:18:46.520Z,6.30
2022-09-25T11:24:04.502Z,6.32
2022-09-25T11:29:21.484Z,6.80
2022-09-25T11:34:35.921Z,7.03
2022-09-25T11:40:25.912Z,7.57
2022-09-25T11:45:39.512Z,7.63
2022-09-25T11:51:03.154Z,7.20
2022-09-25T11:56:43.983Z,7.50
2022-09-25T12:01:53.282Z,8.23
2022-09-25T12:07:13.464Z,10.35
2022-09-25T12:12:54.487Z,9.82
2022-09-25T12:18:25.421Z,9.70
2022-09-25T12:23:28.155Z,9.80
2022-09-25T12:28:43.654Z,10.20
2022-09-25T12:34:09.362Z,8.85
2022-09-25T12:40:04.005Z,9.43
2022-09-25T12:45:33.120Z,10.02
2022-09-25T12:50:48.025Z,6.88
2022-09-25T12:56:13.945Z,9.10
2022-09-25T13:01:46.310Z,7.72
2022-09-25T13:07:20.898Z,7.35
2022-09-25T13:12:38.020Z,7.65
2022-09-25T13:17:40.990Z,8.55
2022-09-25T13:22:43.723Z,9.10
2022-09-25T13:27:47.381Z,8.35
2022-09-25T13:32:56.264Z,8.73
2022-09-25T13:38:36.239Z,9.07
2022-09-25T13:43:39.071Z,10.00
2022-09-25T13:48:42.013Z,10.73
2022-09-25T13:54:04.056Z,12.85
2022-09-25T13:59:13.349Z,14.70
2022-09-25T14:04:19.592Z,12.05
2022-09-25T14:09:25.120Z,10.85
2022-09-25T14:14:37.060Z,10.17
2022-09-25T14:19:44.181Z,13.93
2022-09-25T14:24:47.809Z,11.90
2022-09-25T14:29:50.830Z,12.35
2022-09-25T14:35:17.620Z,11.00
2022-09-25T14:40:30.396Z,10.67
2022-09-25T14:45:48.645Z,12.02
2022-09-25T14:50:59.012Z,10.52
2022-09-25T14:56:04.047Z,10.98
2022-09-25T15:01:29.920Z,11.25
2022-09-25T15:06:35.705Z,11.20
2022-09-25T15:11:43.660Z,11.60
2022-09-25T15:17:05.680Z,11.80
2022-09-25T15:22:18.179Z,10.25
2022-09-25T15:27:22.865Z,10.30
2022-09-25T15:32:35.590Z,9.37
2022-09-25T15:37:39.035Z,9.75
2022-09-25T15:42:46.228Z,10.23
2022-09-25T15:47:52.603Z,9.27
2022-09-25T15:52:58.974Z,9.48
2022-09-25T15:58:13.363Z,10.17
2022-09-25T16:03:45.248Z,11.55
2022-09-25T16:08:48.220Z,11.93
2022-09-25T16:14:16.800Z,12.90
2022-09-25T16:19:25.683Z,12.07
2022-09-25T16:24:30.102Z,12.63
2022-09-25T16:29:37.545Z,11.35
2022-09-25T16:34:41.921Z,12.95
2022-09-25T16:39:44.972Z,12.32
2022-09-25T16:44:49.412Z,10.75
2022-09-25T16:49:52.282Z,12.73
2022-09-25T16:54:57.638Z,12.48
2022-09-25T17:00:01.375Z,11.93
2022-09-25T17:05:19.612Z,11.65
2022-09-25T17:10:25.330Z,12.75
2022-09-25T17:15:33.009Z,12.03
2022-09-25T17:20:36.220Z,12.55
2022-09-25T17:25:50.081Z,11.52
2022-09-25T17:30:53.096Z,12.27
2022-09-25T17:36:05.742Z,11.77
2022-09-25T17:41:21.014Z,12.57
2022-09-25T17:46:25.267Z,12.75
2022-09-25T17:51:30.154Z,12.30
2022-09-25T17:56:35.048Z,12.07
2022-09-25T18:01:39.935Z,13.68
2022-09-25T18:06:43.809Z,13.30
2022-09-25T18:11:46.903Z,13.98
2022-09-25T18:16:49.695Z,13.23
2022-09-25T18:22:10.814Z,13.93
2022-09-25T18:27:15.709Z,13.70
2022-09-25T18:32:18.699Z,15.07
2022-09-25T18:37:21.566Z,14.27
2022-09-25T18:42:24.410Z,15.95
2022-09-25T18:47:27.576Z,16.25
2022-09-25T18:52:31.669Z,15.40
2022-09-25T18:57:38.475Z,14.97
2022-09-25T19:02:44.032Z,15.60
2022-09-25T19:07:46.878Z,15.52
2022-09-25T19:12:49.617Z,15.05
2022-09-25T19:17:52.466Z,15.30
2022-09-25T19:22:55.420Z,17.00
2022-09-25T19:27:58.107Z,17.60
2022-09-25T19:33:00.877Z,16.00
2022-09-25T19:38:03.616Z,17.02
2022-09-25T19:43:08.397Z,17.13
2022-09-25T19:48:11.159Z,16.63
2022-09-25T19:53:14.406Z,16.95
2022-09-25T19:58:19.937Z,16.35
2022-09-25T20:03:25.866Z,22.33
2022-09-25T20:08:28.896Z,18.80
2022-09-25T20:13:32.256Z,18.80
2022-09-25T20:18:34.960Z,18.42
2022-09-25T20:23:37.838Z,17.65
2022-09-25T20:28:42.386Z,19.15
2022-09-25T20:33:45.479Z,21.75
2022-09-25T20:38:53.404Z,20.40
2022-09-25T20:43:57.459Z,19.42
2022-09-25T20:49:00.926Z,18.52
2022-09-25T20:54:09.545Z,20.40
2022-09-25T20:59:12.696Z,20.50
2022-09-25T21:04:18.427Z,21.87
2022-09-25T21:09:26.895Z,20.38
2022-09-25T21:14:29.793Z,18.98
2022-09-25T21:19:32.477Z,18.73
2022-09-25T21:24:36.086Z,21.60
2022-09-25T21:29:38.777Z,21.27
2022-09-25T21:34:41.716Z,20.27
2022-09-25T21:39:45.139Z,19.73
2022-09-25T21:44:48.172Z,19.90
2022-09-25T21:49:51.200Z,20.02
2022-09-25T21:54:54.836Z,19.03
2022-09-25T21:59:57.497Z,19.23
2022-09-25T22:05:00.153Z,17.92
2022-09-25T22:10:03.133Z,18.20
2022-09-25T22:15:06.294Z,19.77
2022-09-25T22:20:10.697Z,19.67
2022-09-25T22:25:13.458Z,18.73
2022-09-25T22:30:16.175Z,19.85
2022-09-25T22:35:18.768Z,19.08
2022-09-25T22:40:21.601Z,18.63
2022-09-25T22:45:24.304Z,18.00
2022-09-25T22:50:29.985Z,18.83
2022-09-25T22:55:33.959Z,18.90
2022-09-25T23:00:36.615Z,17.83
2022-09-25T23:05:39.838Z,19.45
2022-09-25T23:11:05.628Z,19.67
2022-09-25T23:16:07.467Z,18.95
2022-09-25T23:21:10.051Z,19.13
2022-09-25T23:26:12.685Z,18.92
2022-09-25T23:31:17.668Z,18.27
2022-09-25T23:36:23.383Z,18.10
2022-09-25T23:41:36.085Z,18.38
2022-09-25T23:46:41.401Z,17.75
2022-09-25T23:51:44.150Z,18.50
2022-09-25T23:56:47.016Z,19.15
